createdAt,value
2023-04-02T00:00:56.983Z,8.00
2023-04-02T00:03:23.691Z,8.00
2023-04-02T00:05:50.707Z,8.00
2023-04-02T00:08:38.828Z,8.00
2023-04-02T00:11:06.783Z,8.00
2023-04-02T00:13:45.452Z,8.00
2023-04-02T00:16:16.861Z,8.00
2023-04-02T00:18:49.836Z,8.00
2023-04-02T00:21:25.846Z,8.00
2023-04-02T00:23:55.437Z,8.00
2023-04-02T00:26:34.974Z,8.00
2023-04-02T00:29:03.974Z,8.10
2023-04-02T00:31:32.111Z,8.00
2023-04-02T00:34:01.112Z,8.10
2023-04-02T00:36:33.911Z,8.10
2023-04-02T00:39:04.767Z,8.10
2023-04-02T00:41:36.274Z,8.00
2023-04-02T00:44:03.456Z,8.10
2023-04-02T00:46:49.755Z,8.10
2023-04-02T00:49:31.516Z,8.00
2023-04-02T00:52:01.843Z,8.00
2023-04-02T00:54:33.458Z,8.00
2023-04-02T00:57:01.512Z,8.00
2023-04-02T00:59:43.116Z,8.00
2023-04-02T01:02:17.462Z,8.00
2023-04-02T01:05:02.350Z,8.00
2023-04-02T01:07:51.155Z,8.00
2023-04-02T01:10:41.395Z,8.00
2023-04-02T01:13:13.661Z,8.00
2023-04-02T01:15:52.799Z,8.00
2023-04-02T01:18:37.737Z,8.00
2023-04-02T01:21:10.947Z,8.00
2023-04-02T01:24:02.443Z,8.00
2023-04-02T01:26:51.075Z,8.00
2023-04-02T01:29:38.712Z,8.00
2023-04-02T01:32:12.401Z,8.00
2023-04-02T01:34:39.773Z,8.00
2023-04-02T01:37:22.226Z,8.00
2023-04-02T01:40:07.506Z,8.00
2023-04-02T01:42:49.405Z,8.00
2023-04-02T01:45:21.772Z,8.00
2023-04-02T01:47:49.437Z,8.00
2023-04-02T01:50:37.100Z,8.00
2023-04-02T01:53:10.764Z,8.00
2023-04-02T01:55:40.304Z,7.90
2023-04-02T01:58:08.827Z,8.00
2023-04-02T02:00:37.422Z,7.90
2023-04-02T02:03:06.326Z,7.90
2023-04-02T02:05:33.236Z,7.90
2023-04-02T02:08:01.298Z,7.90
2023-04-02T02:10:36.478Z,7.90
2023-04-02T02:13:03.731Z,7.90
2023-04-02T02:15:35.943Z,7.90
2023-04-02T02:18:05.885Z,7.90
2023-04-02T02:20:34.534Z,7.80
2023-04-02T02:23:03.838Z,7.80
2023-04-02T02:25:35.963Z,7.80
2023-04-02T02:28:39.062Z,7.80
2023-04-02T02:31:18.470Z,7.70
2023-04-02T02:33:53.802Z,7.80
2023-04-02T02:36:29.871Z,7.80
2023-04-02T02:39:12.372Z,7.70
2023-04-02T02:41:51.524Z,7.70
2023-04-02T02:44:24.148Z,7.70
2023-04-02T02:46:54.990Z,7.70
2023-04-02T02:49:27.278Z,7.70
2023-04-02T02:52:12.620Z,7.70
2023-04-02T02:54:43.912Z,7.70
2023-04-02T02:57:16.957Z,7.70
2023-04-02T02:59:45.587Z,7.70
2023-04-02T03:02:13.178Z,7.70
2023-04-02T03:04:39.879Z,7.70
2023-04-02T03:07:09.173Z,7.60
2023-04-02T03:09:57.458Z,7.60
2023-04-02T03:12:24.068Z,7.60
2023-04-02T03:15:03.270Z,7.60
2023-04-02T03:18:01.823Z,7.60
2023-04-02T03:20:40.633Z,7.60
2023-04-02T03:23:20.504Z,7.60
2023-04-02T03:25:59.881Z,7.60
2023-04-02T03:28:31.886Z,7.60
2023-04-02T03:31:16.708Z,7.70
2023-04-02T03:34:05.707Z,7.60
2023-04-02T03:36:46.680Z,7.60
2023-04-02T03:39:24.228Z,7.60
2023-04-02T03:42:14.103Z,7.60
2023-04-02T03:44:46.769Z,7.60
2023-04-02T03:47:19.720Z,7.60
2023-04-02T03:50:25.305Z,7.60
2023-04-02T03:52:52.181Z,7.60
2023-04-02T03:55:29.183Z,7.60
2023-04-02T03:58:20.815Z,7.60
2023-04-02T04:01:09.043Z,7.60
2023-04-02T04:03:49.883Z,7.60
2023-04-02T04:06:35.245Z,7.60
2023-04-02T04:09:10.078Z,7.60
2023-04-02T04:11:43.810Z,7.60
2023-04-02T04:14:30.960Z,7.60
2023-04-02T04:17:15.758Z,7.60
2023-04-02T04:20:01.839Z,7.60
2023-04-02T04:22:33.943Z,7.60
2023-04-02T04:25:18.028Z,7.60
2023-04-02T04:28:10.577Z,7.50
2023-04-02T04:30:50.827Z,7.50
2023-04-02T04:33:25.756Z,7.50
2023-04-02T04:35:59.159Z,7.50
2023-04-02T04:38:39.544Z,7.50
2023-04-02T04:41:14.307Z,7.50
2023-04-02T04:43:50.468Z,7.50
2023-04-02T04:46:26.342Z,7.60
2023-04-02T04:49:11.193Z,7.50
2023-04-02T04:52:02.346Z,7.50
2023-04-02T04:54:29.183Z,7.40
2023-04-02T04:59:41.266Z,7.40
2023-04-02T05:02:18.115Z,7.40
2023-04-02T05:04:50.061Z,7.40
2023-04-02T05:07:29.677Z,7.40
2023-04-02T05:10:13.572Z,7.40
2023-04-02T05:12:52.527Z,7.40
2023-04-02T05:15:22.734Z,7.40
2023-04-02T05:17:57.514Z,7.40
2023-04-02T05:20:36.271Z,7.30
2023-04-02T05:23:13.959Z,7.40
2023-04-02T05:25:52.817Z,7.40
2023-04-02T05:28:29.839Z,7.40
2023-04-02T05:31:09.014Z,7.40
2023-04-02T05:33:37.109Z,7.40
2023-04-02T05:36:13.788Z,7.40
2023-04-02T05:38:46.370Z,7.40
2023-04-02T05:41:26.916Z,7.40
2023-04-02T05:44:06.727Z,7.40
2023-04-02T05:46:45.668Z,7.50
2023-04-02T05:49:24.410Z,7.50
2023-04-02T05:51:55.870Z,7.60
2023-04-02T05:54:30.656Z,7.50
2023-04-02T05:57:04.680Z,7.60
2023-04-02T05:59:37.525Z,7.70
2023-04-02T06:02:23.177Z,7.60
2023-04-02T06:05:05.435Z,7.60
2023-04-02T06:07:41.640Z,7.50
2023-04-02T06:10:16.127Z,7.50
2023-04-02T06:12:54.579Z,7.60
2023-04-02T06:15:23.418Z,7.70
2023-04-02T06:18:05.072Z,7.70
2023-04-02T06:20:32.273Z,7.70
2023-04-02T06:23:14.787Z,7.80
2023-04-02T06:26:16.762Z,7.70
2023-04-02T06:28:56.157Z,7.90
2023-04-02T06:31:55.055Z,7.90
2023-04-02T06:34:24.567Z,7.90
2023-04-02T06:36:55.646Z,7.90
2023-04-02T06:39:24.693Z,7.90
2023-04-02T06:42:22.648Z,7.90
2023-04-02T06:44:49.810Z,8.00
2023-04-02T06:47:25.815Z,8.00
2023-04-02T06:50:04.922Z,8.00
2023-04-02T06:52:47.306Z,8.10
2023-04-02T06:55:50.476Z,8.20
2023-04-02T06:58:19.160Z,8.30
2023-04-02T07:00:50.676Z,8.40
2023-04-02T07:03:27.585Z,8.40
2023-04-02T07:05:54.692Z,8.50
2023-04-02T07:08:21.791Z,8.40
2023-04-02T07:10:48.780Z,8.40
2023-04-02T07:13:20.126Z,8.40
2023-04-02T07:15:52.668Z,8.40
2023-04-02T07:18:33.203Z,8.30
2023-04-02T07:21:00.314Z,8.30
2023-04-02T07:23:27.213Z,8.30
2023-04-02T07:25:55.243Z,8.40
2023-04-02T07:28:22.893Z,8.40
2023-04-02T07:30:50.924Z,8.50
2023-04-02T07:33:20.476Z,8.50
2023-04-02T07:35:47.833Z,8.60
2023-04-02T07:38:14.657Z,8.70
2023-04-02T07:40:41.581Z,8.70
2023-04-02T07:43:08.766Z,8.70
2023-04-02T07:45:35.987Z,8.80
2023-04-02T07:48:10.831Z,9.00
2023-04-02T07:50:37.600Z,9.10
2023-04-02T07:53:04.615Z,9.10
2023-04-02T07:55:31.293Z,8.90
2023-04-02T07:57:59.610Z,8.70
2023-04-02T08:00:28.333Z,8.60
2023-04-02T08:02:55.508Z,8.60
2023-04-02T08:05:22.661Z,8.70
2023-04-02T08:07:54.504Z,8.80
2023-04-02T08:10:21.379Z,8.80
2023-04-02T08:12:48.491Z,8.90
2023-04-02T08:15:16.327Z,9.10
2023-04-02T08:17:43.586Z,9.30
2023-04-02T08:20:19.284Z,9.50
2023-04-02T08:22:47.248Z,9.80
2023-04-02T08:25:14.227Z,9.40
2023-04-02T08:27:41.614Z,9.40
2023-04-02T08:30:11.659Z,9.30
2023-04-02T08:32:40.978Z,9.50
2023-04-02T08:35:14.641Z,9.40
2023-04-02T08:37:42.008Z,9.30
2023-04-02T08:40:24.836Z,9.40
2023-04-02T08:43:02.234Z,9.40
2023-04-02T08:45:56.505Z,9.50
2023-04-02T08:48:24.263Z,9.70
2023-04-02T08:50:51.527Z,9.30
2023-04-02T08:53:22.240Z,9.20
2023-04-02T08:56:05.264Z,9.40
2023-04-02T08:58:43.269Z,9.60
2023-04-02T09:01:35.961Z,9.60
2023-04-02T09:04:05.936Z,9.80
2023-04-02T09:06:34.586Z,9.70
2023-04-02T09:09:01.413Z,9.70
2023-04-02T09:11:41.230Z,9.80
2023-04-02T09:14:18.523Z,9.80
2023-04-02T09:16:51.055Z,9.70
2023-04-02T09:19:20.585Z,9.60
2023-04-02T09:21:59.914Z,9.80
2023-04-02T09:24:26.532Z,9.80
2023-04-02T09:26:53.326Z,10.20
2023-04-02T09:29:38.778Z,9.90
2023-04-02T09:32:32.158Z,9.90
2023-04-02T09:35:24.843Z,9.90
2023-04-02T09:38:07.860Z,9.80
2023-04-02T09:40:58.322Z,9.90
2023-04-02T09:43:30.995Z,9.90
2023-04-02T09:46:24.601Z,10.20
2023-04-02T09:49:01.370Z,10.30
2023-04-02T09:51:33.113Z,10.40
2023-04-02T09:54:03.017Z,10.50
2023-04-02T09:56:31.693Z,11.10
2023-04-02T09:59:07.128Z,11.60
2023-04-02T10:01:37.287Z,11.60
2023-04-02T10:04:06.856Z,11.30
2023-04-02T10:06:34.819Z,11.20
2023-04-02T10:09:27.957Z,10.70
2023-04-02T10:11:56.118Z,10.70
2023-04-02T10:14:32.049Z,10.40
2023-04-02T10:17:07.463Z,10.40
2023-04-02T10:19:41.124Z,10.30
2023-04-02T10:22:17.689Z,10.20
2023-04-02T10:24:44.645Z,10.10
2023-04-02T10:27:22.559Z,10.10
2023-04-02T10:30:26.386Z,10.00
2023-04-02T10:33:00.791Z,10.00
2023-04-02T10:36:07.277Z,10.00
2023-04-02T10:39:08.447Z,9.90
2023-04-02T10:41:38.092Z,9.90
2023-04-02T10:44:26.106Z,9.80
2023-04-02T10:47:08.618Z,9.80
2023-04-02T10:49:41.906Z,10.00
2023-04-02T10:52:27.227Z,10.10
2023-04-02T10:54:57.166Z,10.20
2023-04-02T10:57:33.189Z,10.30
2023-04-02T11:00:23.141Z,10.50
2023-04-02T11:02:56.269Z,10.30
2023-04-02T11:05:31.505Z,10.30
2023-04-02T11:08:10.348Z,10.30
2023-04-02T11:10:40.356Z,10.60
2023-04-02T11:13:31.451Z,10.80
2023-04-02T11:15:58.213Z,10.70
2023-04-02T11:18:36.060Z,10.70
2023-04-02T11:21:58.586Z,10.80
2023-04-02T11:24:37.314Z,10.70
2023-04-02T11:27:11.196Z,10.90
2023-04-02T11:29:42.377Z,11.40
2023-04-02T11:32:25.322Z,11.30
2023-04-02T11:35:05.019Z,11.00
2023-04-02T11:37:46.056Z,10.80
2023-04-02T11:40:14.013Z,10.60
2023-04-02T11:42:41.985Z,10.80
2023-04-02T11:45:23.885Z,11.00
2023-04-02T11:48:08.206Z,11.00
2023-04-02T11:50:40.944Z,10.90
2023-04-02T11:53:11.449Z,10.70
2023-04-02T11:55:40.919Z,10.70
2023-04-02T11:58:29.766Z,10.30
2023-04-02T12:01:05.403Z,9.80
2023-04-02T12:03:47.424Z,9.50
2023-04-02T12:06:47.846Z,9.10
2023-04-02T12:09:20.378Z,9.00
2023-04-02T12:11:48.133Z,8.70
2023-04-02T12:14:43.450Z,8.70
2023-04-02T12:17:38.069Z,8.60
2023-04-02T12:20:09.390Z,8.90
2023-04-02T12:22:40.790Z,8.60
2023-04-02T12:25:26.874Z,8.70
2023-04-02T12:28:17.911Z,8.60
2023-04-02T12:30:48.556Z,8.70
2023-04-02T12:33:27.780Z,8.70
2023-04-02T12:36:02.844Z,8.50
2023-04-02T12:38:44.601Z,8.20
2023-04-02T12:41:37.859Z,8.20
2023-04-02T12:44:13.535Z,8.00
2023-04-02T12:46:40.669Z,8.20
2023-04-02T12:49:26.013Z,8.20
2023-04-02T12:51:54.388Z,8.20
2023-04-02T12:54:21.716Z,8.10
2023-04-02T12:56:49.880Z,8.10
2023-04-02T12:59:30.125Z,8.10
2023-04-02T13:01:59.404Z,7.70
2023-04-02T13:04:26.730Z,7.70
2023-04-02T13:06:56.978Z,7.70
2023-04-02T13:09:44.786Z,7.70
2023-04-02T13:12:34.618Z,7.90
2023-04-02T13:15:04.831Z,7.80
2023-04-02T13:17:46.669Z,7.90
2023-04-02T13:20:33.866Z,8.10
2023-04-02T13:23:18.484Z,7.90
2023-04-02T13:25:45.632Z,7.90
2023-04-02T13:28:12.336Z,7.90
2023-04-02T13:30:38.951Z,8.00
2023-04-02T13:33:05.625Z,7.80
2023-04-02T13:35:32.773Z,7.70
2023-04-02T13:38:02.692Z,7.90
2023-04-02T13:40:29.469Z,7.90
2023-04-02T13:42:56.106Z,7.80
2023-04-02T13:45:27.293Z,7.70
2023-04-02T13:47:55.072Z,7.70
2023-04-02T13:50:23.936Z,7.80
2023-04-02T13:52:51.745Z,7.80
2023-04-02T13:55:20.969Z,8.00
2023-04-02T13:57:48.420Z,7.80
2023-04-02T14:00:16.183Z,7.90
2023-04-02T14:02:49.515Z,7.70
2023-04-02T14:05:30.842Z,7.80
2023-04-02T14:08:19.117Z,8.10
2023-04-02T14:10:54.574Z,7.80
2023-04-02T14:13:52.124Z,8.10
2023-04-02T14:16:39.941Z,8.10
2023-04-02T14:19:12.646Z,8.20
2023-04-02T14:21:52.660Z,8.10
2023-04-02T14:24:52.185Z,8.10
2023-04-02T14:27:40.404Z,8.10
2023-04-02T14:30:07.290Z,8.10
2023-04-02T14:32:52.771Z,8.10
2023-04-02T14:35:42.816Z,7.80
2023-04-02T14:38:22.551Z,7.70
2023-04-02T14:41:24.171Z,7.90
2023-04-02T14:43:51.045Z,8.00
2023-04-02T14:46:17.772Z,7.70
2023-04-02T14:49:02.686Z,7.90
2023-04-02T14:51:38.354Z,7.80
2023-04-02T14:54:29.708Z,7.80
2023-04-02T14:57:16.775Z,7.70
2023-04-02T14:59:56.558Z,7.70
2023-04-02T15:02:46.617Z,7.60
2023-04-02T15:05:21.187Z,7.70
2023-04-02T15:08:15.532Z,7.50
2023-04-02T15:10:56.480Z,7.40
2023-04-02T15:13:45.910Z,7.30
2023-04-02T15:16:23.740Z,7.40
2023-04-02T15:18:52.810Z,7.40
2023-04-02T15:21:19.484Z,7.20
2023-04-02T15:24:10.604Z,7.10
2023-04-02T15:26:55.483Z,7.20
2023-04-02T15:29:37.623Z,7.20
2023-04-02T15:32:30.794Z,7.00
2023-04-02T15:35:22.714Z,6.90
2023-04-02T15:38:11.961Z,6.90
2023-04-02T15:40:54.628Z,7.00
2023-04-02T15:43:43.761Z,7.00
2023-04-02T15:46:33.605Z,6.90
2023-04-02T15:49:12.291Z,6.90
2023-04-02T15:52:05.835Z,6.80
2023-04-02T15:54:40.921Z,6.90
2023-04-02T15:57:24.166Z,6.90
2023-04-02T16:00:30.520Z,6.80
2023-04-02T16:03:12.732Z,6.80
2023-04-02T16:05:46.253Z,6.80
2023-04-02T16:08:33.469Z,6.80
2023-04-02T16:11:00.245Z,6.80
2023-04-02T16:13:32.405Z,6.80
2023-04-02T16:16:15.793Z,6.80
2023-04-02T16:19:25.379Z,6.80
2023-04-02T16:22:05.445Z,6.80
2023-04-02T16:24:32.185Z,6.80
2023-04-02T16:27:22.549Z,6.80
2023-04-02T16:29:55.280Z,6.70
2023-04-02T16:32:53.756Z,6.70
2023-04-02T16:35:42.734Z,6.80
2023-04-02T16:38:31.674Z,6.70
2023-04-02T16:41:38.955Z,6.70
2023-04-02T16:44:22.050Z,6.70
2023-04-02T16:46:55.029Z,6.60
2023-04-02T16:49:56.495Z,6.60
2023-04-02T16:52:35.976Z,6.60
2023-04-02T16:55:29.954Z,6.50
2023-04-02T16:58:23.239Z,6.40
2023-04-02T17:01:11.706Z,6.40
2023-04-02T17:04:03.828Z,6.30
2023-04-02T17:06:43.825Z,6.40
2023-04-02T17:09:21.392Z,6.40
2023-04-02T17:12:18.431Z,6.30
2023-04-02T17:14:57.496Z,6.30
2023-04-02T17:17:24.562Z,6.20
2023-04-02T17:19:55.942Z,6.20
2023-04-02T17:22:23.641Z,6.30
2023-04-02T17:25:04.094Z,6.20
2023-04-02T17:27:41.062Z,6.20
2023-04-02T17:30:26.648Z,6.10
2023-04-02T17:32:53.349Z,6.10
2023-04-02T17:35:45.261Z,6.10
2023-04-02T17:38:47.219Z,6.00
2023-04-02T17:41:36.593Z,6.00
2023-04-02T17:44:27.895Z,6.00
2023-04-02T17:47:19.342Z,6.10
2023-04-02T17:49:59.049Z,6.00
2023-04-02T17:52:31.469Z,6.00
2023-04-02T17:55:11.002Z,5.90
2023-04-02T17:57:37.656Z,5.90
2023-04-02T18:00:13.378Z,5.90
2023-04-02T18:03:13.439Z,5.90
2023-04-02T18:05:49.715Z,5.70
2023-04-02T18:08:37.661Z,5.60
2023-04-02T18:11:10.497Z,5.50
2023-04-02T18:13:42.199Z,5.50
2023-04-02T18:16:22.213Z,5.40
2023-04-02T18:19:03.550Z,5.40
2023-04-02T18:22:09.769Z,5.30
2023-04-02T18:25:02.952Z,5.30
2023-04-02T18:27:35.463Z,5.20
2023-04-02T18:30:19.725Z,5.50
2023-04-02T18:33:01.208Z,5.20
2023-04-02T18:35:48.297Z,4.90
2023-04-02T18:38:42.985Z,5.00
2023-04-02T18:41:49.471Z,5.00
2023-04-02T18:44:49.267Z,4.80
2023-04-02T18:47:27.178Z,4.70
2023-04-02T18:50:31.797Z,4.70
2023-04-02T18:52:58.815Z,4.60
2023-04-02T18:55:29.527Z,4.60
2023-04-02T18:58:06.198Z,4.60
2023-04-02T19:00:36.569Z,4.60
2023-04-02T19:03:26.808Z,4.50
2023-04-02T19:06:03.228Z,4.60
2023-04-02T19:08:34.280Z,4.50
2023-04-02T19:11:07.082Z,4.50
2023-04-02T19:13:33.831Z,4.50
2023-04-02T19:16:13.875Z,4.50
2023-04-02T19:19:22.205Z,4.40
2023-04-02T19:21:57.795Z,4.40
2023-04-02T19:24:43.309Z,4.30
2023-04-02T19:27:51.987Z,4.30
2023-04-02T19:30:40.554Z,4.30
2023-04-02T19:33:24.253Z,4.20
2023-04-02T19:35:59.325Z,4.10
2023-04-02T19:38:39.171Z,4.20
2023-04-02T19:41:28.741Z,4.10
2023-04-02T19:43:55.961Z,4.00
2023-04-02T19:46:24.304Z,4.00
2023-04-02T19:49:04.625Z,3.90
2023-04-02T19:51:31.408Z,3.90
2023-04-02T19:53:58.053Z,3.90
2023-04-02T19:56:24.790Z,3.80
2023-04-02T19:58:51.617Z,3.80
2023-04-02T20:01:18.657Z,3.80
2023-04-02T20:03:45.446Z,3.80
2023-04-02T20:06:12.255Z,3.20
2023-04-02T20:08:39.025Z,3.80
2023-04-02T20:11:06.891Z,3.70
2023-04-02T20:13:34.669Z,3.70
2023-04-02T20:16:03.066Z,3.70
2023-04-02T20:18:30.844Z,3.70
2023-04-02T20:20:57.973Z,3.70
2023-04-02T20:23:24.890Z,3.70
2023-04-02T20:25:55.171Z,3.70
2023-04-02T20:28:26.594Z,3.70
2023-04-02T20:30:54.080Z,3.70
2023-04-02T20:33:23.495Z,3.70
2023-04-02T20:35:52.821Z,3.70
2023-04-02T20:38:19.539Z,3.70
2023-04-02T20:40:52.884Z,3.80
2023-04-02T20:43:19.635Z,3.70
2023-04-02T20:46:05.441Z,3.70
2023-04-02T20:48:32.564Z,3.70
2023-04-02T20:51:00.132Z,3.70
2023-04-02T20:53:28.884Z,3.70
2023-04-02T20:56:02.090Z,3.70
2023-04-02T20:58:28.708Z,3.70
2023-04-02T21:00:55.409Z,3.70
2023-04-02T21:03:21.958Z,3.70
2023-04-02T21:05:48.571Z,3.70
2023-04-02T21:08:15.225Z,3.70
2023-04-02T21:10:41.875Z,3.70
2023-04-02T21:13:08.518Z,3.70
2023-04-02T21:15:35.416Z,3.80
2023-04-02T21:18:02.318Z,3.70
2023-04-02T21:20:28.935Z,3.70
2023-04-02T21:22:55.700Z,3.60
2023-04-02T21:25:22.325Z,3.60
2023-04-02T21:27:48.862Z,3.60
2023-04-02T21:30:15.606Z,3.60
2023-04-02T21:32:42.174Z,3.60
2023-04-02T21:35:09.097Z,3.60
2023-04-02T21:37:36.140Z,3.60
2023-04-02T21:40:03.871Z,3.60
2023-04-02T21:42:30.558Z,3.60
2023-04-02T21:44:57.145Z,3.60
2023-04-02T21:47:24.343Z,3.60
2023-04-02T21:49:50.983Z,3.60
2023-04-02T21:52:17.541Z,3.60
2023-04-02T21:54:44.172Z,3.60
2023-04-02T21:57:10.876Z,3.60
2023-04-02T21:59:37.498Z,3.70
2023-04-02T22:02:04.846Z,3.70
2023-04-02T22:04:33.300Z,3.70
2023-04-02T22:07:00.048Z,3.60
2023-04-02T22:09:26.778Z,3.60
2023-04-02T22:11:54.746Z,3.70
2023-04-02T22:14:21.986Z,3.70
2023-04-02T22:16:48.694Z,3.70
2023-04-02T22:19:16.282Z,3.70
2023-04-02T22:21:43.258Z,3.70
2023-04-02T22:24:12.387Z,3.70
2023-04-02T22:26:40.255Z,3.70
2023-04-02T22:29:06.950Z,3.70
2023-04-02T22:31:34.993Z,3.70
2023-04-02T22:34:02.257Z,3.70
2023-04-02T22:36:29.097Z,3.70
2023-04-02T22:38:56.621Z,3.70
2023-04-02T22:41:25.971Z,3.70
2023-04-02T22:43:52.824Z,3.70
2023-04-02T22:46:19.660Z,3.70
2023-04-02T22:48:46.816Z,3.90
2023-04-02T22:51:14.816Z,3.70
2023-04-02T22:53:42.893Z,3.70
2023-04-02T22:56:11.198Z,3.70
2023-04-02T22:58:38.362Z,3.70
2023-04-02T23:01:09.857Z,3.70
2023-04-02T23:03:36.440Z,3.70
2023-04-02T23:06:04.622Z,3.70
2023-04-02T23:08:31.246Z,3.70
2023-04-02T23:11:02.320Z,3.70
2023-04-02T23:13:29.207Z,3.70
2023-04-02T23:15:56.355Z,3.70
2023-04-02T23:18:23.128Z,3.70
2023-04-02T23:20:49.723Z,3.60
2023-04-02T23:23:16.326Z,3.60
2023-04-02T23:25:43.118Z,3.90
2023-04-02T23:28:10.532Z,3.60
2023-04-02T23:30:37.981Z,3.60
2023-04-02T23:33:04.880Z,3.60
2023-04-02T23:35:31.562Z,3.60
2023-04-02T23:37:58.193Z,3.60
2023-04-02T23:40:24.792Z,3.60
2023-04-02T23:42:51.373Z,3.60
2023-04-02T23:45:18.073Z,3.60
2023-04-02T23:47:44.761Z,3.80
2023-04-02T23:50:11.388Z,3.60
2023-04-02T23:52:37.981Z,3.60
2023-04-02T23:55:04.686Z,3.60
2023-04-02T23:57:31.366Z,3.60
2023-04-02T23:59:58.054Z,3.60
